sensor_id;sensor_type;location;lat;lon;timestamp;pressure;altitude;pressure_sealevel;temperature;humidity
85764;BME280;76207;39.772;2.706;2024-02-04T00:01:02;103004.85;;;9.80;67.64
85764;BME280;76207;39.772;2.706;2024-02-04T00:03:28;103009.26;;;9.78;67.87
85764;BME280;76207;39.772;2.706;2024-02-04T00:05:53;103005.24;;;9.75;68.12
85764;BME280;76207;39.772;2.706;2024-02-04T00:08:19;103000.83;;;9.72;67.93
85764;BME280;76207;39.772;2.706;2024-02-04T00:10:44;103003.21;;;9.70;67.85
85764;BME280;76207;39.772;2.706;2024-02-04T00:13:10;102999.70;;;9.69;67.56
85764;BME280;76207;39.772;2.706;2024-02-04T00:15:35;102994.61;;;9.67;67.48
85764;BME280;76207;39.772;2.706;2024-02-04T00:18:01;102996.77;;;9.65;67.42
85764;BME280;76207;39.772;2.706;2024-02-04T00:20:26;102997.85;;;9.62;67.52
85764;BME280;76207;39.772;2.706;2024-02-04T00:22:54;103000.76;;;9.60;67.47
85764;BME280;76207;39.772;2.706;2024-02-04T00:25:20;102998.66;;;9.58;67.30
85764;BME280;76207;39.772;2.706;2024-02-04T00:27:45;102998.02;;;9.55;67.43
85764;BME280;76207;39.772;2.706;2024-02-04T00:30:11;102996.09;;;9.54;67.40
85764;BME280;76207;39.772;2.706;2024-02-04T00:32:37;102994.61;;;9.51;67.42
85764;BME280;76207;39.772;2.706;2024-02-04T00:35:03;102995.02;;;9.48;67.45
85764;BME280;76207;39.772;2.706;2024-02-04T00:37:28;102990.13;;;9.44;67.59
85764;BME280;76207;39.772;2.706;2024-02-04T00:39:54;102991.46;;;9.41;67.56
85764;BME280;76207;39.772;2.706;2024-02-04T00:42:19;102987.91;;;9.41;67.47
85764;BME280;76207;39.772;2.706;2024-02-04T00:44:45;102981.60;;;9.39;67.68
85764;BME280;76207;39.772;2.706;2024-02-04T00:47:10;102980.00;;;9.39;67.59
85764;BME280;76207;39.772;2.706;2024-02-04T00:49:36;102979.80;;;9.38;67.73
85764;BME280;76207;39.772;2.706;2024-02-04T00:52:01;102979.15;;;9.33;67.84
85764;BME280;76207;39.772;2.706;2024-02-04T00:54:27;102975.29;;;9.25;68.53
85764;BME280;76207;39.772;2.706;2024-02-04T00:56:52;102972.85;;;9.13;68.53
85764;BME280;76207;39.772;2.706;2024-02-04T00:59:18;102969.41;;;9.09;68.74
85764;BME280;76207;39.772;2.706;2024-02-04T01:01:43;102967.15;;;9.09;68.88
85764;BME280;76207;39.772;2.706;2024-02-04T01:04:09;102961.02;;;9.12;68.77
85764;BME280;76207;39.772;2.706;2024-02-04T01:06:34;102961.22;;;9.16;68.81
85764;BME280;76207;39.772;2.706;2024-02-04T01:09:00;102956.59;;;9.20;68.60
85764;BME280;76207;39.772;2.706;2024-02-04T01:11:26;102950.34;;;9.23;68.40
85764;BME280;76207;39.772;2.706;2024-02-04T01:13:51;102953.05;;;9.23;68.34
85764;BME280;76207;39.772;2.706;2024-02-04T01:16:17;102954.28;;;9.19;68.19
85764;BME280;76207;39.772;2.706;2024-02-04T01:18:42;102950.84;;;9.15;68.09
85764;BME280;76207;39.772;2.706;2024-02-04T01:21:08;102948.13;;;9.11;68.14
85764;BME280;76207;39.772;2.706;2024-02-04T01:23:34;102949.67;;;9.08;68.03
85764;BME280;76207;39.772;2.706;2024-02-04T01:26:00;102950.89;;;9.05;68.07
85764;BME280;76207;39.772;2.706;2024-02-04T01:28:25;102950.73;;;9.01;67.96
85764;BME280;76207;39.772;2.706;2024-02-04T01:30:51;102952.63;;;9.00;67.66
85764;BME280;76207;39.772;2.706;2024-02-04T01:33:16;102954.98;;;8.99;67.82
85764;BME280;76207;39.772;2.706;2024-02-04T01:35:42;102952.56;;;8.95;68.32
85764;BME280;76207;39.772;2.706;2024-02-04T01:38:07;102954.95;;;8.92;68.31
85764;BME280;76207;39.772;2.706;2024-02-04T01:40:33;102956.05;;;8.91;68.46
85764;BME280;76207;39.772;2.706;2024-02-04T01:42:58;102953.27;;;8.90;68.81
85764;BME280;76207;39.772;2.706;2024-02-04T01:45:24;102949.53;;;8.88;68.98
85764;BME280;76207;39.772;2.706;2024-02-04T01:47:50;102949.57;;;8.85;68.73
85764;BME280;76207;39.772;2.706;2024-02-04T01:50:16;102951.27;;;8.83;69.01
85764;BME280;76207;39.772;2.706;2024-02-04T01:52:42;102951.67;;;8.86;68.96
85764;BME280;76207;39.772;2.706;2024-02-04T01:55:09;102944.48;;;8.88;68.85
85764;BME280;76207;39.772;2.706;2024-02-04T01:57:34;102945.10;;;8.90;68.63
85764;BME280;76207;39.772;2.706;2024-02-04T02:00:00;102944.63;;;8.92;68.72
85764;BME280;76207;39.772;2.706;2024-02-04T02:02:26;102945.40;;;8.95;68.71
85764;BME280;76207;39.772;2.706;2024-02-04T02:04:51;102947.21;;;8.94;68.67
85764;BME280;76207;39.772;2.706;2024-02-04T02:07:18;102946.08;;;8.92;68.48
85764;BME280;76207;39.772;2.706;2024-02-04T02:09:47;102942.55;;;8.88;68.40
85764;BME280;76207;39.772;2.706;2024-02-04T02:12:24;102942.22;;;8.85;68.23
85764;BME280;76207;39.772;2.706;2024-02-04T02:14:58;102944.71;;;8.81;68.37
85764;BME280;76207;39.772;2.706;2024-02-04T02:17:31;102947.07;;;8.79;68.52
85764;BME280;76207;39.772;2.706;2024-02-04T02:20:10;102944.48;;;8.80;68.50
85764;BME280;76207;39.772;2.706;2024-02-04T02:22:50;102944.05;;;8.74;68.39
85764;BME280;76207;39.772;2.706;2024-02-04T02:25:20;102938.40;;;8.70;68.37
85764;BME280;76207;39.772;2.706;2024-02-04T02:27:50;102949.87;;;8.70;68.48
85764;BME280;76207;39.772;2.706;2024-02-04T02:30:16;102945.05;;;8.70;68.32
85764;BME280;76207;39.772;2.706;2024-02-04T02:32:44;102943.11;;;8.69;68.32
85764;BME280;76207;39.772;2.706;2024-02-04T02:35:14;102944.23;;;8.68;68.41
85764;BME280;76207;39.772;2.706;2024-02-04T02:37:50;102945.04;;;8.66;68.49
85764;BME280;76207;39.772;2.706;2024-02-04T02:40:28;102944.92;;;8.63;68.56
85764;BME280;76207;39.772;2.706;2024-02-04T02:42:55;102937.77;;;8.60;68.73
85764;BME280;76207;39.772;2.706;2024-02-04T02:45:23;102936.95;;;8.60;68.74
85764;BME280;76207;39.772;2.706;2024-02-04T02:47:52;102934.57;;;8.64;68.80
85764;BME280;76207;39.772;2.706;2024-02-04T02:50:18;102930.35;;;8.64;68.77
85764;BME280;76207;39.772;2.706;2024-02-04T02:52:44;102930.11;;;8.65;68.66
85764;BME280;76207;39.772;2.706;2024-02-04T02:55:09;102932.89;;;8.64;68.67
85764;BME280;76207;39.772;2.706;2024-02-04T02:57:35;102930.60;;;8.61;68.34
85764;BME280;76207;39.772;2.706;2024-02-04T03:00:01;102927.02;;;8.58;68.45
85764;BME280;76207;39.772;2.706;2024-02-04T03:02:26;102929.45;;;8.55;68.53
85764;BME280;76207;39.772;2.706;2024-02-04T03:04:52;102927.20;;;8.51;68.40
85764;BME280;76207;39.772;2.706;2024-02-04T03:07:17;102926.17;;;8.47;68.42
85764;BME280;76207;39.772;2.706;2024-02-04T03:09:43;102918.56;;;8.44;68.64
85764;BME280;76207;39.772;2.706;2024-02-04T03:12:09;102915.79;;;8.40;68.62
85764;BME280;76207;39.772;2.706;2024-02-04T03:14:34;102911.60;;;8.39;68.63
85764;BME280;76207;39.772;2.706;2024-02-04T03:17:00;102913.19;;;8.38;68.81
85764;BME280;76207;39.772;2.706;2024-02-04T03:19:25;102910.81;;;8.38;68.74
85764;BME280;76207;39.772;2.706;2024-02-04T03:21:51;102907.62;;;8.39;68.73
85764;BME280;76207;39.772;2.706;2024-02-04T03:24:16;102905.98;;;8.36;68.58
85764;BME280;76207;39.772;2.706;2024-02-04T03:26:42;102911.58;;;8.34;68.83
85764;BME280;76207;39.772;2.706;2024-02-04T03:29:07;102908.96;;;8.32;69.10
85764;BME280;76207;39.772;2.706;2024-02-04T03:31:33;102909.47;;;8.28;69.21
85764;BME280;76207;39.772;2.706;2024-02-04T03:33:58;102911.09;;;8.25;69.16
85764;BME280;76207;39.772;2.706;2024-02-04T03:36:24;102911.36;;;8.23;69.19
85764;BME280;76207;39.772;2.706;2024-02-04T03:38:50;102914.52;;;8.24;69.15
85764;BME280;76207;39.772;2.706;2024-02-04T03:41:16;102918.13;;;8.22;69.33
85764;BME280;76207;39.772;2.706;2024-02-04T03:43:42;102918.11;;;8.22;69.26
85764;BME280;76207;39.772;2.706;2024-02-04T03:46:07;102910.41;;;8.24;69.40
85764;BME280;76207;39.772;2.706;2024-02-04T03:48:33;102909.96;;;8.24;69.61
85764;BME280;76207;39.772;2.706;2024-02-04T03:51:01;102909.69;;;8.23;69.64
85764;BME280;76207;39.772;2.706;2024-02-04T03:53:27;102910.88;;;8.21;69.63
85764;BME280;76207;39.772;2.706;2024-02-04T03:55:52;102911.44;;;8.18;69.48
85764;BME280;76207;39.772;2.706;2024-02-04T03:58:20;102912.13;;;8.14;69.62
85764;BME280;76207;39.772;2.706;2024-02-04T04:00:55;102910.96;;;8.13;69.63
85764;BME280;76207;39.772;2.706;2024-02-04T04:03:20;102908.31;;;8.16;69.28
85764;BME280;76207;39.772;2.706;2024-02-04T04:05:46;102907.02;;;8.16;69.46
85764;BME280;76207;39.772;2.706;2024-02-04T04:08:11;102905.00;;;8.17;69.52
85764;BME280;76207;39.772;2.706;2024-02-04T04:10:36;102910.79;;;8.15;69.23
85764;BME280;76207;39.772;2.706;2024-02-04T04:13:02;102910.06;;;8.11;68.91
85764;BME280;76207;39.772;2.706;2024-02-04T04:15:28;102910.19;;;8.09;69.27
85764;BME280;76207;39.772;2.706;2024-02-04T04:17:53;102907.24;;;8.07;68.70
85764;BME280;76207;39.772;2.706;2024-02-04T04:20:19;102904.58;;;8.00;68.71
85764;BME280;76207;39.772;2.706;2024-02-04T04:22:44;102902.45;;;7.94;68.73
85764;BME280;76207;39.772;2.706;2024-02-04T04:25:09;102905.11;;;7.88;69.09
85764;BME280;76207;39.772;2.706;2024-02-04T04:27:35;102907.89;;;7.83;69.49
85764;BME280;76207;39.772;2.706;2024-02-04T04:30:00;102903.03;;;7.84;69.62
85764;BME280;76207;39.772;2.706;2024-02-04T04:32:26;102898.38;;;7.79;69.78
85764;BME280;76207;39.772;2.706;2024-02-04T04:34:51;102896.68;;;7.77;69.71
85764;BME280;76207;39.772;2.706;2024-02-04T04:37:17;102895.21;;;7.76;70.32
85764;BME280;76207;39.772;2.706;2024-02-04T04:39:42;102894.50;;;7.72;70.01
85764;BME280;76207;39.772;2.706;2024-02-04T04:42:08;102888.90;;;7.72;69.98
85764;BME280;76207;39.772;2.706;2024-02-04T04:44:33;102890.96;;;7.74;70.26
85764;BME280;76207;39.772;2.706;2024-02-04T04:46:59;102889.44;;;7.74;69.99
85764;BME280;76207;39.772;2.706;2024-02-04T04:49:24;102886.70;;;7.74;69.95
85764;BME280;76207;39.772;2.706;2024-02-04T04:51:49;102885.90;;;7.73;70.10
85764;BME280;76207;39.772;2.706;2024-02-04T04:54:15;102882.80;;;7.73;70.06
85764;BME280;76207;39.772;2.706;2024-02-04T04:56:41;102882.08;;;7.72;69.86
85764;BME280;76207;39.772;2.706;2024-02-04T04:59:07;102881.95;;;7.74;69.93
85764;BME280;76207;39.772;2.706;2024-02-04T05:01:33;102878.64;;;7.74;70.29
85764;BME280;76207;39.772;2.706;2024-02-04T05:04:00;102877.00;;;7.76;70.20
85764;BME280;76207;39.772;2.706;2024-02-04T05:06:26;102877.15;;;7.79;70.09
85764;BME280;76207;39.772;2.706;2024-02-04T05:08:52;102873.23;;;7.81;70.12
85764;BME280;76207;39.772;2.706;2024-02-04T05:11:17;102869.75;;;7.80;70.21
85764;BME280;76207;39.772;2.706;2024-02-04T05:13:43;102873.39;;;7.81;69.97
85764;BME280;76207;39.772;2.706;2024-02-04T05:16:08;102874.77;;;7.79;70.13
85764;BME280;76207;39.772;2.706;2024-02-04T05:18:34;102874.81;;;7.78;70.15
85764;BME280;76207;39.772;2.706;2024-02-04T05:21:01;102878.51;;;7.74;70.14
85764;BME280;76207;39.772;2.706;2024-02-04T05:23:27;102881.91;;;7.70;69.77
85764;BME280;76207;39.772;2.706;2024-02-04T05:25:53;102884.65;;;7.67;69.90
85764;BME280;76207;39.772;2.706;2024-02-04T05:28:18;102882.27;;;7.65;69.63
85764;BME280;76207;39.772;2.706;2024-02-04T05:30:44;102883.67;;;7.64;69.16
85764;BME280;76207;39.772;2.706;2024-02-04T05:33:13;102889.44;;;7.62;69.78
85764;BME280;76207;39.772;2.706;2024-02-04T05:35:39;102891.16;;;7.57;70.03
85764;BME280;76207;39.772;2.706;2024-02-04T05:38:09;102887.23;;;7.52;70.18
85764;BME280;76207;39.772;2.706;2024-02-04T05:40:35;102888.70;;;7.49;70.04
85764;BME280;76207;39.772;2.706;2024-02-04T05:43:00;102895.17;;;7.49;70.42
85764;BME280;76207;39.772;2.706;2024-02-04T05:45:31;102893.67;;;7.48;70.33
85764;BME280;76207;39.772;2.706;2024-02-04T05:47:57;102895.03;;;7.48;69.99
85764;BME280;76207;39.772;2.706;2024-02-04T05:50:22;102894.38;;;7.46;69.93
85764;BME280;76207;39.772;2.706;2024-02-04T05:52:48;102895.41;;;7.45;70.41
85764;BME280;76207;39.772;2.706;2024-02-04T05:55:14;102896.36;;;7.48;70.32
85764;BME280;76207;39.772;2.706;2024-02-04T05:57:39;102901.16;;;7.49;70.00
85764;BME280;76207;39.772;2.706;2024-02-04T06:00:07;102902.61;;;7.47;69.81
85764;BME280;76207;39.772;2.706;2024-02-04T06:02:33;102903.13;;;7.47;70.27
85764;BME280;76207;39.772;2.706;2024-02-04T06:04:59;102904.11;;;7.49;70.25
85764;BME280;76207;39.772;2.706;2024-02-04T06:07:24;102903.54;;;7.48;70.23
85764;BME280;76207;39.772;2.706;2024-02-04T06:09:49;102903.45;;;7.47;70.21
85764;BME280;76207;39.772;2.706;2024-02-04T06:12:15;102906.34;;;7.47;70.15
85764;BME280;76207;39.772;2.706;2024-02-04T06:14:40;102902.59;;;7.46;70.00
85764;BME280;76207;39.772;2.706;2024-02-04T06:17:06;102902.38;;;7.43;70.37
85764;BME280;76207;39.772;2.706;2024-02-04T06:19:35;102896.81;;;7.38;70.45
85764;BME280;76207;39.772;2.706;2024-02-04T06:22:01;102901.26;;;7.37;70.64
85764;BME280;76207;39.772;2.706;2024-02-04T06:24:27;102898.80;;;7.39;70.57
85764;BME280;76207;39.772;2.706;2024-02-04T06:26:52;102898.45;;;7.39;70.75
85764;BME280;76207;39.772;2.706;2024-02-04T06:29:17;102894.77;;;7.38;70.49
85764;BME280;76207;39.772;2.706;2024-02-04T06:31:46;102897.29;;;7.39;70.59
85764;BME280;76207;39.772;2.706;2024-02-04T06:34:12;102899.16;;;7.41;70.50
85764;BME280;76207;39.772;2.706;2024-02-04T06:36:41;102896.61;;;7.41;70.79
85764;BME280;76207;39.772;2.706;2024-02-04T06:39:07;102895.25;;;7.38;70.71
85764;BME280;76207;39.772;2.706;2024-02-04T06:41:34;102893.05;;;7.35;70.83
85764;BME280;76207;39.772;2.706;2024-02-04T06:44:00;102892.20;;;7.33;70.97
85764;BME280;76207;39.772;2.706;2024-02-04T06:46:27;102895.80;;;7.32;71.01
85764;BME280;76207;39.772;2.706;2024-02-04T06:48:53;102889.63;;;7.29;70.75
85764;BME280;76207;39.772;2.706;2024-02-04T06:51:19;102886.13;;;7.23;71.57
85764;BME280;76207;39.772;2.706;2024-02-04T06:53:45;102888.06;;;7.24;71.34
85764;BME280;76207;39.772;2.706;2024-02-04T06:56:11;102887.98;;;7.25;71.18
85764;BME280;76207;39.772;2.706;2024-02-04T06:58:41;102891.15;;;7.26;70.82
85764;BME280;76207;39.772;2.706;2024-02-04T07:01:07;102897.77;;;7.28;70.73
85764;BME280;76207;39.772;2.706;2024-02-04T07:03:33;102898.05;;;7.27;70.63
85764;BME280;76207;39.772;2.706;2024-02-04T07:05:59;102905.93;;;7.26;70.65
85764;BME280;76207;39.772;2.706;2024-02-04T07:08:25;102905.92;;;7.24;71.06
85764;BME280;76207;39.772;2.706;2024-02-04T07:10:51;102912.10;;;7.23;70.70
85764;BME280;76207;39.772;2.706;2024-02-04T07:13:17;102920.21;;;7.22;71.11
85764;BME280;76207;39.772;2.706;2024-02-04T07:15:43;102920.11;;;7.19;71.01
85764;BME280;76207;39.772;2.706;2024-02-04T07:18:09;102924.92;;;7.18;71.01
85764;BME280;76207;39.772;2.706;2024-02-04T07:20:35;102929.92;;;7.20;71.42
85764;BME280;76207;39.772;2.706;2024-02-04T07:23:01;102931.98;;;7.22;71.23
85764;BME280;76207;39.772;2.706;2024-02-04T07:25:26;102934.66;;;7.25;71.12
85764;BME280;76207;39.772;2.706;2024-02-04T07:27:53;102933.15;;;7.29;71.35
85764;BME280;76207;39.772;2.706;2024-02-04T07:30:19;102937.14;;;7.33;71.21
85764;BME280;76207;39.772;2.706;2024-02-04T07:32:46;102939.11;;;7.34;71.50
85764;BME280;76207;39.772;2.706;2024-02-04T07:35:12;102936.68;;;7.33;71.11
85764;BME280;76207;39.772;2.706;2024-02-04T07:37:38;102937.79;;;7.32;71.50
85764;BME280;76207;39.772;2.706;2024-02-04T07:40:04;102936.00;;;7.32;71.27
85764;BME280;76207;39.772;2.706;2024-02-04T07:42:33;102933.66;;;7.29;71.33
85764;BME280;76207;39.772;2.706;2024-02-04T07:44:58;102934.98;;;7.25;70.70
85764;BME280;76207;39.772;2.706;2024-02-04T07:47:24;102938.90;;;7.24;70.86
85764;BME280;76207;39.772;2.706;2024-02-04T07:49:50;102938.40;;;7.25;70.83
85764;BME280;76207;39.772;2.706;2024-02-04T07:52:16;102942.91;;;7.28;70.75
85764;BME280;76207;39.772;2.706;2024-02-04T07:54:42;102943.29;;;7.30;70.90
85764;BME280;76207;39.772;2.706;2024-02-04T07:57:09;102945.34;;;7.32;70.74
85764;BME280;76207;39.772;2.706;2024-02-04T07:59:35;102948.08;;;7.32;70.95
85764;BME280;76207;39.772;2.706;2024-02-04T08:02:01;102951.77;;;7.31;71.26
85764;BME280;76207;39.772;2.706;2024-02-04T08:04:26;102956.55;;;7.33;71.39
85764;BME280;76207;39.772;2.706;2024-02-04T08:06:53;102959.27;;;7.35;71.77
85764;BME280;76207;39.772;2.706;2024-02-04T08:09:19;102959.87;;;7.34;71.72
85764;BME280;76207;39.772;2.706;2024-02-04T08:11:45;102960.88;;;7.32;72.06
85764;BME280;76207;39.772;2.706;2024-02-04T08:14:10;102963.52;;;7.36;72.37
85764;BME280;76207;39.772;2.706;2024-02-04T08:16:39;102964.74;;;7.38;72.66
85764;BME280;76207;39.772;2.706;2024-02-04T08:19:04;102967.14;;;7.32;73.41
85764;BME280;76207;39.772;2.706;2024-02-04T08:21:32;102967.89;;;7.24;73.63
85764;BME280;76207;39.772;2.706;2024-02-04T08:23:58;102968.08;;;7.24;72.94
85764;BME280;76207;39.772;2.706;2024-02-04T08:26:24;102972.39;;;7.31;73.20
85764;BME280;76207;39.772;2.706;2024-02-04T08:28:50;102973.92;;;8.04;72.36
85764;BME280;76207;39.772;2.706;2024-02-04T08:31:16;102974.21;;;9.49;71.39
85764;BME280;76207;39.772;2.706;2024-02-04T08:33:41;102979.52;;;10.90;69.56
85764;BME280;76207;39.772;2.706;2024-02-04T08:36:07;102974.14;;;12.20;67.37
85764;BME280;76207;39.772;2.706;2024-02-04T08:38:36;102971.46;;;13.27;64.95
85764;BME280;76207;39.772;2.706;2024-02-04T08:41:04;102969.97;;;13.97;62.62
85764;BME280;76207;39.772;2.706;2024-02-04T08:43:30;102972.44;;;14.57;62.62
85764;BME280;76207;39.772;2.706;2024-02-04T08:45:55;102971.02;;;15.27;61.63
85764;BME280;76207;39.772;2.706;2024-02-04T08:48:21;102969.92;;;15.93;60.39
85764;BME280;76207;39.772;2.706;2024-02-04T08:50:46;102964.95;;;16.50;59.52
85764;BME280;76207;39.772;2.706;2024-02-04T08:53:12;102964.09;;;16.97;58.62
85764;BME280;76207;39.772;2.706;2024-02-04T08:55:37;102967.34;;;17.33;57.32
85764;BME280;76207;39.772;2.706;2024-02-04T08:58:03;102965.75;;;17.59;56.26
85764;BME280;76207;39.772;2.706;2024-02-04T09:00:29;102965.50;;;17.78;55.24
85764;BME280;76207;39.772;2.706;2024-02-04T09:02:54;102957.39;;;17.93;54.33
85764;BME280;76207;39.772;2.706;2024-02-04T09:05:21;102957.27;;;18.06;54.09
85764;BME280;76207;39.772;2.706;2024-02-04T09:07:46;102959.43;;;18.21;53.63
85764;BME280;76207;39.772;2.706;2024-02-04T09:10:12;102952.48;;;18.35;52.74
85764;BME280;76207;39.772;2.706;2024-02-04T09:12:38;102950.56;;;18.35;52.73
85764;BME280;76207;39.772;2.706;2024-02-04T09:15:04;102946.70;;;18.37;52.66
85764;BME280;76207;39.772;2.706;2024-02-04T09:17:30;102940.92;;;18.52;52.31
85764;BME280;76207;39.772;2.706;2024-02-04T09:19:58;102936.02;;;18.68;52.12
85764;BME280;76207;39.772;2.706;2024-02-04T09:22:24;102932.77;;;18.80;51.90
85764;BME280;76207;39.772;2.706;2024-02-04T09:24:50;102933.92;;;18.93;51.72
85764;BME280;76207;39.772;2.706;2024-02-04T09:27:15;102938.05;;;19.05;51.23
85764;BME280;76207;39.772;2.706;2024-02-04T09:29:41;102938.02;;;19.08;50.73
85764;BME280;76207;39.772;2.706;2024-02-04T09:32:06;102943.83;;;19.13;50.28
85764;BME280;76207;39.772;2.706;2024-02-04T09:34:33;102946.25;;;19.23;50.23
85764;BME280;76207;39.772;2.706;2024-02-04T09:36:58;102948.77;;;19.31;49.93
85764;BME280;76207;39.772;2.706;2024-02-04T09:39:24;102949.02;;;19.46;50.04
85764;BME280;76207;39.772;2.706;2024-02-04T09:41:49;102949.48;;;19.58;49.59
85764;BME280;76207;39.772;2.706;2024-02-04T09:44:15;102956.98;;;19.69;49.20
85764;BME280;76207;39.772;2.706;2024-02-04T09:46:42;102958.06;;;19.84;49.05
85764;BME280;76207;39.772;2.706;2024-02-04T09:49:08;102960.75;;;20.00;48.23
85764;BME280;76207;39.772;2.706;2024-02-04T09:51:35;102962.67;;;19.97;47.14
85764;BME280;76207;39.772;2.706;2024-02-04T09:54:04;102968.97;;;19.94;47.79
85764;BME280;76207;39.772;2.706;2024-02-04T09:56:32;102969.54;;;20.06;48.18
85764;BME280;76207;39.772;2.706;2024-02-04T09:58:58;102967.88;;;20.25;47.98
85764;BME280;76207;39.772;2.706;2024-02-04T10:01:24;102968.27;;;20.41;47.47
85764;BME280;76207;39.772;2.706;2024-02-04T10:03:51;102968.02;;;20.46;47.22
85764;BME280;76207;39.772;2.706;2024-02-04T10:06:17;102963.88;;;20.73;47.53
85764;BME280;76207;39.772;2.706;2024-02-04T10:08:43;102963.20;;;21.09;46.98
85764;BME280;76207;39.772;2.706;2024-02-04T10:11:09;102963.24;;;21.41;46.56
85764;BME280;76207;39.772;2.706;2024-02-04T10:13:48;102965.11;;;21.73;44.43
85764;BME280;76207;39.772;2.706;2024-02-04T10:16:15;102964.13;;;21.95;43.27
85764;BME280;76207;39.772;2.706;2024-02-04T10:18:42;102959.77;;;22.17;42.95
85764;BME280;76207;39.772;2.706;2024-02-04T10:21:19;102960.80;;;22.57;43.21
85764;BME280;76207;39.772;2.706;2024-02-04T10:23:48;102961.72;;;23.04;41.90
85764;BME280;76207;39.772;2.706;2024-02-04T10:26:14;102962.38;;;23.37;40.93
85764;BME280;76207;39.772;2.706;2024-02-04T10:28:40;102965.04;;;23.69;40.85
85764;BME280;76207;39.772;2.706;2024-02-04T10:31:09;102968.42;;;23.97;40.15
85764;BME280;76207;39.772;2.706;2024-02-04T10:33:36;102968.61;;;24.09;39.43
85764;BME280;76207;39.772;2.706;2024-02-04T10:36:02;102968.19;;;24.07;39.47
85764;BME280;76207;39.772;2.706;2024-02-04T10:38:29;102968.48;;;23.99;38.95
85764;BME280;76207;39.772;2.706;2024-02-04T10:40:55;102971.63;;;23.73;38.83
85764;BME280;76207;39.772;2.706;2024-02-04T10:43:21;102972.00;;;23.38;39.46
85764;BME280;76207;39.772;2.706;2024-02-04T10:45:47;102973.73;;;23.03;39.86
85764;BME280;76207;39.772;2.706;2024-02-04T10:48:19;102974.38;;;22.69;40.39
85764;BME280;76207;39.772;2.706;2024-02-04T10:50:48;102975.98;;;22.43;40.83
85764;BME280;76207;39.772;2.706;2024-02-04T10:53:15;102969.24;;;22.26;40.82
85764;BME280;76207;39.772;2.706;2024-02-04T10:55:46;102968.27;;;22.15;40.97
85764;BME280;76207;39.772;2.706;2024-02-04T10:58:13;102969.34;;;21.99;40.82
85764;BME280;76207;39.772;2.706;2024-02-04T11:00:43;102967.06;;;21.86;41.95
85764;BME280;76207;39.772;2.706;2024-02-04T11:03:10;102965.27;;;21.80;42.42
85764;BME280;76207;39.772;2.706;2024-02-04T11:05:36;102966.07;;;21.74;42.93
85764;BME280;76207;39.772;2.706;2024-02-04T11:08:04;102964.00;;;21.67;42.79
85764;BME280;76207;39.772;2.706;2024-02-04T11:10:31;102962.11;;;21.59;43.03
85764;BME280;76207;39.772;2.706;2024-02-04T11:13:02;102959.40;;;21.57;42.64
85764;BME280;76207;39.772;2.706;2024-02-04T11:15:32;102960.73;;;21.51;42.95
85764;BME280;76207;39.772;2.706;2024-02-04T11:21:26;102953.90;;;21.46;42.76
85764;BME280;76207;39.772;2.706;2024-02-04T11:24:35;102945.52;;;21.41;43.35
85764;BME280;76207;39.772;2.706;2024-02-04T11:27:08;102943.08;;;21.37;43.61
85764;BME280;76207;39.772;2.706;2024-02-04T11:29:33;102938.96;;;21.35;43.76
85764;BME280;76207;39.772;2.706;2024-02-04T11:32:01;102940.58;;;21.40;43.67
85764;BME280;76207;39.772;2.706;2024-02-04T11:34:27;102935.05;;;21.49;43.58
85764;BME280;76207;39.772;2.706;2024-02-04T11:36:53;102930.66;;;21.57;44.16
85764;BME280;76207;39.772;2.706;2024-02-04T11:39:19;102924.27;;;21.58;44.70
85764;BME280;76207;39.772;2.706;2024-02-04T11:41:49;102923.09;;;21.55;45.21
85764;BME280;76207;39.772;2.706;2024-02-04T11:44:22;102914.12;;;21.52;45.40
85764;BME280;76207;39.772;2.706;2024-02-04T11:46:49;102907.94;;;21.46;45.72
85764;BME280;76207;39.772;2.706;2024-02-04T11:49:18;102903.91;;;21.42;46.01
85764;BME280;76207;39.772;2.706;2024-02-04T11:51:48;102897.68;;;21.43;46.11
85764;BME280;76207;39.772;2.706;2024-02-04T11:54:16;102898.05;;;21.43;45.96
85764;BME280;76207;39.772;2.706;2024-02-04T11:56:44;102894.30;;;21.41;45.90
85764;BME280;76207;39.772;2.706;2024-02-04T11:59:11;102889.90;;;21.40;46.28
85764;BME280;76207;39.772;2.706;2024-02-04T12:01:39;102886.96;;;21.40;46.21
85764;BME280;76207;39.772;2.706;2024-02-04T12:04:17;102891.04;;;21.42;45.60
85764;BME280;76207;39.772;2.706;2024-02-04T12:06:43;102896.01;;;21.44;45.50
85764;BME280;76207;39.772;2.706;2024-02-04T12:09:09;102893.35;;;21.47;45.30
85764;BME280;76207;39.772;2.706;2024-02-04T12:11:36;102892.55;;;21.53;44.90
85764;BME280;76207;39.772;2.706;2024-02-04T12:14:04;102894.36;;;21.60;45.08
85764;BME280;76207;39.772;2.706;2024-02-04T12:16:31;102889.84;;;21.64;45.53
85764;BME280;76207;39.772;2.706;2024-02-04T12:18:58;102888.21;;;21.71;45.78
85764;BME280;76207;39.772;2.706;2024-02-04T12:21:25;102881.74;;;21.71;45.38
85764;BME280;76207;39.772;2.706;2024-02-04T12:23:51;102873.90;;;21.66;45.14
85764;BME280;76207;39.772;2.706;2024-02-04T12:26:17;102872.98;;;21.65;45.40
85764;BME280;76207;39.772;2.706;2024-02-04T12:28:43;102875.39;;;21.69;45.54
85764;BME280;76207;39.772;2.706;2024-02-04T12:31:25;102870.61;;;21.75;45.79
85764;BME280;76207;39.772;2.706;2024-02-04T12:33:55;102866.55;;;21.87;45.77
85764;BME280;76207;39.772;2.706;2024-02-04T12:36:27;102866.67;;;21.95;45.62
85764;BME280;76207;39.772;2.706;2024-02-04T12:38:53;102866.20;;;21.96;45.77
85764;BME280;76207;39.772;2.706;2024-02-04T12:41:20;102866.50;;;21.99;45.55
85764;BME280;76207;39.772;2.706;2024-02-04T12:43:57;102857.73;;;22.11;45.67
85764;BME280;76207;39.772;2.706;2024-02-04T12:46:28;102855.33;;;22.21;45.81
85764;BME280;76207;39.772;2.706;2024-02-04T12:48:58;102848.02;;;22.26;45.86
85764;BME280;76207;39.772;2.706;2024-02-04T12:51:29;102844.42;;;22.27;45.95
85764;BME280;76207;39.772;2.706;2024-02-04T12:54:04;102837.95;;;22.27;45.84
85764;BME280;76207;39.772;2.706;2024-02-04T12:56:59;102829.08;;;22.23;45.62
85764;BME280;76207;39.772;2.706;2024-02-04T12:59:29;102823.56;;;22.16;45.50